createdAt,value
2018-09-08T00:00:38.671Z,0.00
2018-09-08T00:01:38.680Z,0.00
2018-09-08T00:02:38.684Z,0.00
2018-09-08T00:03:38.696Z,0.00
2018-09-08T00:04:38.709Z,0.00
2018-09-08T00:05:38.732Z,0.00
2018-09-08T00:06:38.706Z,0.00
2018-09-08T00:07:38.712Z,0.00
2018-09-08T00:08:38.791Z,0.00
2018-09-08T00:09:38.718Z,0.00
2018-09-08T00:10:38.779Z,0.00
2018-09-08T00:11:38.745Z,0.00
2018-09-08T00:12:38.723Z,0.00
2018-09-08T00:13:38.728Z,0.00
2018-09-08T00:14:38.737Z,0.00
2018-09-08T00:15:38.750Z,0.00
2018-09-08T00:16:38.746Z,0.00
2018-09-08T00:17:38.753Z,0.00
2018-09-08T00:18:38.751Z,0.00
2018-09-08T00:19:38.755Z,0.00
2018-09-08T00:20:38.766Z,0.00
2018-09-08T00:21:38.799Z,0.00
2018-09-08T00:22:38.773Z,0.00
2018-09-08T00:23:38.779Z,0.00
2018-09-08T00:24:38.841Z,0.00
2018-09-08T00:25:38.801Z,0.00
2018-09-08T00:26:38.806Z,0.00
2018-09-08T00:27:38.803Z,0.00
2018-09-08T00:28:38.795Z,0.00
2018-09-08T00:29:38.802Z,0.00
2018-09-08T00:30:38.805Z,0.00
2018-09-08T00:31:38.810Z,0.00
2018-09-08T00:32:38.823Z,0.00
2018-09-08T00:33:38.825Z,0.00
2018-09-08T00:34:38.822Z,0.00
2018-09-08T00:35:38.834Z,0.00
2018-09-08T00:36:38.831Z,0.00
2018-09-08T00:37:38.846Z,0.00
2018-09-08T00:38:38.845Z,0.00
2018-09-08T00:39:38.895Z,0.00
2018-09-08T00:40:38.862Z,0.00
2018-09-08T00:41:38.870Z,0.00
2018-09-08T00:42:38.865Z,0.00
2018-09-08T00:43:38.915Z,0.00
2018-09-08T00:44:38.895Z,0.00
2018-09-08T00:45:38.941Z,0.00
2018-09-08T00:46:38.882Z,0.00
2018-09-08T00:47:38.874Z,0.00
2018-09-08T00:48:38.882Z,0.00
2018-09-08T00:49:38.888Z,0.00
2018-09-08T00:50:38.897Z,0.00
2018-09-08T00:51:38.891Z,0.00
2018-09-08T00:52:38.964Z,0.00
2018-09-08T00:53:38.912Z,0.00
2018-09-08T00:54:38.904Z,0.00
2018-09-08T00:55:38.913Z,0.00
2018-09-08T00:56:38.920Z,0.00
2018-09-08T00:57:38.928Z,0.00
2018-09-08T00:58:38.945Z,0.00
2018-09-08T00:59:38.923Z,0.00
2018-09-08T01:00:38.932Z,0.00
2018-09-08T01:01:38.935Z,0.00
2018-09-08T01:02:38.943Z,0.00
2018-09-08T01:03:38.986Z,0.00
2018-09-08T01:04:38.997Z,0.00
2018-09-08T01:05:38.954Z,0.00
2018-09-08T01:06:38.964Z,0.00
2018-09-08T01:07:38.960Z,0.00
2018-09-08T01:08:38.959Z,0.00
2018-09-08T01:09:38.977Z,0.00
2018-09-08T01:10:38.973Z,0.00
2018-09-08T01:11:38.980Z,0.00
2018-09-08T01:12:39.017Z,0.00
2018-09-08T01:13:38.983Z,0.00
2018-09-08T01:14:38.989Z,0.00
2018-09-08T01:15:38.993Z,0.00
2018-09-08T01:16:39.031Z,0.00
2018-09-08T01:17:39.026Z,0.00
2018-09-08T01:18:39.003Z,0.00
2018-09-08T01:19:39.006Z,0.00
2018-09-08T01:20:39.020Z,0.00
2018-09-08T01:21:39.079Z,0.00
2018-09-08T01:22:39.018Z,0.00
2018-09-08T01:23:39.067Z,0.00
2018-09-08T01:24:39.027Z,0.00
2018-09-08T01:25:39.053Z,0.00
2018-09-08T01:26:39.041Z,0.00
2018-09-08T01:27:39.045Z,0.00
2018-09-08T01:28:39.048Z,0.00
2018-09-08T01:29:39.086Z,0.00
2018-09-08T01:30:39.061Z,0.00
2018-09-08T01:31:39.055Z,0.00
2018-09-08T01:32:39.073Z,0.00
2018-09-08T01:33:39.063Z,0.00
2018-09-08T01:34:39.070Z,0.00
2018-09-08T01:35:39.069Z,0.00
2018-09-08T01:36:39.081Z,0.00
2018-09-08T01:37:39.089Z,0.00
2018-09-08T01:38:39.091Z,0.00
2018-09-08T01:39:39.087Z,0.00
2018-09-08T01:40:39.095Z,0.00
2018-09-08T01:41:39.094Z,0.00
2018-09-08T01:42:39.130Z,0.00
2018-09-08T01:43:39.112Z,0.00
2018-09-08T01:44:39.109Z,0.00
2018-09-08T01:45:39.142Z,0.00
2018-09-08T01:46:39.123Z,0.00
2018-09-08T01:47:39.127Z,0.00
2018-09-08T01:48:39.142Z,0.00
2018-09-08T01:49:39.143Z,0.00
2018-09-08T01:50:39.129Z,0.00
2018-09-08T01:51:39.136Z,0.00
2018-09-08T01:52:39.143Z,0.00
2018-09-08T01:53:39.143Z,0.00
2018-09-08T01:54:39.183Z,0.00
2018-09-08T01:55:39.154Z,0.00
2018-09-08T01:56:39.169Z,0.00
2018-09-08T01:57:39.168Z,0.00
2018-09-08T01:58:39.167Z,0.00
2018-09-08T01:59:39.236Z,0.00
2018-09-08T02:00:39.198Z,0.00
2018-09-08T02:01:39.209Z,0.00
2018-09-08T02:02:39.179Z,0.00
2018-09-08T02:03:39.187Z,0.00
2018-09-08T02:04:39.186Z,0.00
2018-09-08T02:05:39.263Z,0.00
2018-09-08T02:06:39.208Z,0.00
2018-09-08T02:07:39.202Z,0.00
2018-09-08T02:08:39.210Z,0.00
2018-09-08T02:09:39.204Z,0.00
2018-09-08T02:10:39.209Z,0.00
2018-09-08T02:11:39.212Z,0.00
2018-09-08T02:12:39.221Z,0.00
2018-09-08T02:13:39.239Z,0.00
2018-09-08T02:14:39.236Z,0.00
2018-09-08T02:15:39.252Z,0.00
2018-09-08T02:16:39.240Z,0.00
2018-09-08T02:17:39.241Z,0.00
2018-09-08T02:18:39.250Z,0.00
2018-09-08T02:19:39.242Z,0.00
2018-09-08T02:20:39.259Z,0.00
2018-09-08T02:21:39.259Z,0.00
2018-09-08T02:22:39.256Z,0.00
2018-09-08T02:23:39.259Z,0.00
2018-09-08T02:24:39.270Z,0.00
2018-09-08T02:25:39.269Z,0.00
2018-09-08T02:26:39.270Z,0.00
2018-09-08T02:27:39.276Z,0.00
2018-09-08T02:28:39.290Z,0.00
2018-09-08T02:29:39.319Z,0.00
2018-09-08T02:30:39.339Z,0.00
2018-09-08T02:31:39.314Z,0.00
2018-09-08T02:32:39.290Z,0.00
2018-09-08T02:33:39.293Z,0.00
2018-09-08T02:34:39.321Z,0.00
2018-09-08T02:35:39.304Z,0.00
2018-09-08T02:36:39.317Z,0.00
2018-09-08T02:37:39.308Z,0.00
2018-09-08T02:38:39.310Z,0.00
2018-09-08T02:39:39.323Z,0.00
2018-09-08T02:40:39.318Z,0.00
2018-09-08T02:41:39.335Z,0.00
2018-09-08T02:42:39.332Z,0.00
2018-09-08T02:43:39.333Z,0.00
2018-09-08T02:44:39.337Z,0.00
2018-09-08T02:45:39.351Z,0.00
2018-09-08T02:46:39.339Z,0.00
2018-09-08T02:47:39.343Z,0.00
2018-09-08T02:48:39.373Z,0.00
2018-09-08T02:49:39.357Z,0.00
2018-09-08T02:50:39.390Z,0.00
2018-09-08T02:51:39.363Z,0.00
2018-09-08T02:52:39.363Z,0.00
2018-09-08T02:53:39.372Z,0.00
2018-09-08T02:54:39.414Z,0.00
2018-09-08T02:55:39.449Z,0.00
2018-09-08T02:56:39.381Z,0.00
2018-09-08T02:57:39.390Z,0.00
2018-09-08T02:58:39.383Z,0.00
2018-09-08T02:59:39.433Z,0.00
2018-09-08T03:00:39.400Z,0.00
2018-09-08T03:01:39.395Z,0.00
2018-09-08T03:02:39.404Z,0.00
2018-09-08T03:03:39.404Z,0.00
2018-09-08T03:04:39.406Z,0.00
2018-09-08T03:05:39.409Z,0.00
2018-09-08T03:06:39.414Z,0.00
2018-09-08T03:07:39.425Z,0.00
2018-09-08T03:08:39.436Z,0.00
2018-09-08T03:09:39.432Z,0.00
2018-09-08T03:10:39.504Z,0.00
2018-09-08T03:11:39.435Z,0.00
2018-09-08T03:12:39.438Z,0.00
2018-09-08T03:13:39.446Z,0.00
2018-09-08T03:14:39.453Z,0.00
2018-09-08T03:15:39.482Z,0.00
2018-09-08T03:16:39.453Z,0.00
2018-09-08T03:17:39.462Z,0.00
2018-09-08T03:18:39.462Z,0.00
2018-09-08T03:19:39.501Z,0.00
2018-09-08T03:20:39.465Z,0.00
2018-09-08T03:21:39.468Z,0.00
2018-09-08T03:22:39.572Z,0.00
2018-09-08T03:23:39.481Z,0.00
2018-09-08T03:24:39.502Z,0.00
2018-09-08T03:25:39.496Z,0.00
2018-09-08T03:26:39.494Z,0.00
2018-09-08T03:27:39.528Z,0.00
2018-09-08T03:28:39.495Z,0.00
2018-09-08T03:29:39.499Z,0.00
2018-09-08T03:30:39.503Z,0.00
2018-09-08T03:31:39.516Z,0.00
2018-09-08T03:32:39.535Z,0.00
2018-09-08T03:33:39.509Z,0.00
2018-09-08T03:34:39.512Z,0.00
2018-09-08T03:35:39.522Z,0.00
2018-09-08T03:36:39.534Z,0.00
2018-09-08T03:37:39.533Z,0.00
2018-09-08T03:38:39.545Z,0.00
2018-09-08T03:39:39.653Z,0.00
2018-09-08T03:40:39.540Z,0.00
2018-09-08T03:41:39.541Z,0.00
2018-09-08T03:42:39.560Z,0.00
2018-09-08T03:43:39.546Z,0.00
2018-09-08T03:44:39.552Z,0.00
2018-09-08T03:45:39.560Z,0.00
2018-09-08T03:46:39.557Z,0.00
2018-09-08T03:47:39.561Z,0.00
2018-09-08T03:48:39.562Z,0.00
2018-09-08T03:49:39.572Z,0.00
2018-09-08T03:50:39.601Z,0.00
2018-09-08T03:51:39.590Z,0.00
2018-09-08T03:52:39.578Z,0.00
2018-09-08T03:53:39.601Z,0.00
2018-09-08T03:54:39.588Z,0.00
2018-09-08T03:55:39.619Z,0.00
2018-09-08T03:56:39.589Z,0.00
2018-09-08T03:57:39.594Z,0.00
2018-09-08T03:58:39.600Z,0.00
2018-09-08T03:59:39.601Z,0.00
2018-09-08T04:00:39.618Z,0.00
2018-09-08T04:01:39.608Z,0.00
2018-09-08T04:02:39.613Z,0.00
2018-09-08T04:03:39.615Z,0.00
2018-09-08T04:04:39.621Z,0.00
2018-09-08T04:05:39.687Z,0.00
2018-09-08T04:06:39.629Z,0.00
2018-09-08T04:07:39.661Z,0.00
2018-09-08T04:08:39.632Z,0.00
2018-09-08T04:09:39.637Z,0.00
2018-09-08T04:10:39.658Z,0.00
2018-09-08T04:11:39.645Z,0.00
2018-09-08T04:12:39.644Z,0.00
2018-09-08T04:13:39.684Z,0.00
2018-09-08T04:14:39.656Z,0.00
2018-09-08T04:15:39.674Z,0.00
2018-09-08T04:16:39.666Z,0.00
2018-09-08T04:17:39.678Z,0.00
2018-09-08T04:18:39.677Z,0.00
2018-09-08T04:19:39.674Z,0.00
2018-09-08T04:20:39.677Z,0.00
2018-09-08T04:21:39.683Z,0.00
2018-09-08T04:22:39.679Z,0.00
2018-09-08T04:23:39.714Z,0.00
2018-09-08T04:24:39.712Z,0.00
2018-09-08T04:25:39.691Z,0.00
2018-09-08T04:26:39.700Z,0.00
2018-09-08T04:27:39.694Z,0.00
2018-09-08T04:28:39.700Z,0.00
2018-09-08T04:29:39.775Z,0.00
2018-09-08T04:30:39.709Z,0.00
2018-09-08T04:31:39.735Z,0.00
2018-09-08T04:32:39.722Z,0.00
2018-09-08T04:33:39.730Z,0.00
2018-09-08T04:34:39.765Z,0.00
2018-09-08T04:35:39.723Z,0.00
2018-09-08T04:36:39.727Z,0.00
2018-09-08T04:37:39.738Z,0.00
2018-09-08T04:38:39.733Z,0.00
2018-09-08T04:39:39.738Z,0.00
2018-09-08T04:40:39.749Z,0.00
2018-09-08T04:41:39.790Z,0.00
2018-09-08T04:42:39.749Z,0.00
2018-09-08T04:43:39.757Z,0.00
2018-09-08T04:44:39.854Z,0.00
2018-09-08T04:45:39.769Z,0.00
2018-09-08T04:46:39.762Z,0.00
2018-09-08T04:47:39.760Z,0.00
2018-09-08T04:48:39.761Z,0.00
2018-09-08T04:49:39.771Z,0.00
2018-09-08T04:50:39.777Z,0.00
2018-09-08T04:51:39.784Z,0.00
2018-09-08T04:52:39.783Z,0.00
2018-09-08T04:53:39.784Z,0.00
2018-09-08T04:54:39.788Z,0.00
2018-09-08T04:55:39.800Z,0.00
2018-09-08T04:56:39.826Z,0.00
2018-09-08T04:57:39.835Z,0.00
2018-09-08T04:58:39.798Z,0.00
2018-09-08T04:59:39.795Z,5.63
2018-09-08T05:00:39.858Z,5.63
2018-09-08T05:01:39.811Z,5.63
2018-09-08T05:02:39.824Z,5.63
2018-09-08T05:03:39.819Z,5.63
2018-09-08T05:04:39.813Z,5.63
2018-09-08T05:05:39.816Z,5.63
2018-09-08T05:06:39.830Z,5.63
2018-09-08T05:07:39.841Z,5.63
2018-09-08T05:08:39.836Z,5.63
2018-09-08T05:09:39.848Z,5.63
2018-09-08T05:10:39.838Z,5.63
2018-09-08T05:11:39.841Z,5.63
2018-09-08T05:12:39.852Z,5.63
2018-09-08T05:13:39.873Z,5.63
2018-09-08T05:14:39.849Z,11.25
2018-09-08T05:15:39.852Z,11.25
2018-09-08T05:16:39.848Z,11.25
2018-09-08T05:17:39.866Z,11.25
2018-09-08T05:18:39.911Z,11.25
2018-09-08T05:19:39.871Z,11.25
2018-09-08T05:20:39.932Z,11.25
2018-09-08T05:21:39.910Z,11.25
2018-09-08T05:22:39.876Z,16.88
2018-09-08T05:23:39.882Z,16.88
2018-09-08T05:24:39.882Z,16.88
2018-09-08T05:25:39.878Z,16.88
2018-09-08T05:26:39.886Z,16.88
2018-09-08T05:27:39.883Z,16.88
2018-09-08T05:28:39.970Z,16.88
2018-09-08T05:29:39.899Z,16.88
2018-09-08T05:30:39.947Z,16.88
2018-09-08T05:31:39.908Z,22.50
2018-09-08T05:32:39.958Z,22.50
2018-09-08T05:33:39.910Z,22.50
2018-09-08T05:34:39.911Z,22.50
2018-09-08T05:35:39.928Z,22.50
2018-09-08T05:36:39.911Z,22.50
2018-09-08T05:37:39.928Z,22.50
2018-09-08T05:38:39.931Z,22.50
2018-09-08T05:39:39.932Z,22.50
2018-09-08T05:40:39.929Z,22.50
2018-09-08T05:41:39.933Z,22.50
2018-09-08T05:42:39.932Z,28.13
2018-09-08T05:43:39.969Z,28.13
2018-09-08T05:44:39.978Z,28.13
2018-09-08T05:45:39.949Z,28.13
2018-09-08T05:46:39.951Z,28.13
2018-09-08T05:47:39.987Z,28.13
2018-09-08T05:48:39.991Z,28.13
2018-09-08T05:49:39.972Z,28.13
2018-09-08T05:50:39.964Z,28.13
2018-09-08T05:51:39.970Z,28.13
2018-09-08T05:52:39.967Z,28.13
2018-09-08T05:53:39.969Z,28.13
2018-09-08T05:54:39.972Z,28.13
2018-09-08T05:55:40.024Z,28.13
2018-09-08T05:56:39.983Z,28.13
2018-09-08T05:57:39.982Z,33.75
2018-09-08T05:58:39.988Z,33.75
2018-09-08T05:59:39.995Z,33.75
2018-09-08T06:00:39.988Z,33.75
2018-09-08T06:01:39.998Z,33.75
2018-09-08T06:02:40.003Z,33.75
2018-09-08T06:03:39.995Z,33.75
2018-09-08T06:04:40.000Z,33.75
2018-09-08T06:05:40.009Z,33.75
2018-09-08T06:06:40.036Z,33.75
2018-09-08T06:07:40.029Z,33.75
2018-09-08T06:08:40.058Z,33.75
2018-09-08T06:09:40.022Z,33.75
2018-09-08T06:10:40.075Z,33.75
2018-09-08T06:11:40.027Z,33.75
2018-09-08T06:12:40.023Z,39.38
2018-09-08T06:13:40.027Z,39.38
2018-09-08T06:14:40.037Z,39.38
2018-09-08T06:15:40.033Z,39.38
2018-09-08T06:16:40.038Z,39.38
2018-09-08T06:17:40.046Z,39.38
2018-09-08T06:18:40.043Z,39.38
2018-09-08T06:19:40.126Z,39.38
2018-09-08T06:20:40.059Z,39.38
2018-09-08T06:21:40.076Z,39.38
2018-09-08T06:22:40.066Z,39.38
2018-09-08T06:23:40.101Z,39.38
2018-09-08T06:24:40.062Z,39.38
2018-09-08T06:25:40.129Z,39.38
2018-09-08T06:26:40.141Z,39.38
2018-09-08T06:27:40.079Z,39.38
2018-09-08T06:28:40.253Z,39.38
2018-09-08T06:29:40.094Z,39.38
2018-09-08T06:30:40.083Z,39.38
2018-09-08T06:31:40.150Z,39.38
2018-09-08T06:32:40.099Z,39.38
2018-09-08T06:33:40.134Z,39.38
2018-09-08T06:34:40.133Z,39.38
2018-09-08T06:35:40.145Z,39.38
2018-09-08T06:36:40.153Z,39.38
2018-09-08T06:37:40.115Z,39.38
2018-09-08T06:38:40.134Z,39.38
2018-09-08T06:39:40.115Z,39.38
2018-09-08T06:40:40.128Z,39.38
2018-09-08T06:41:40.134Z,39.38
2018-09-08T06:42:40.131Z,45.00
2018-09-08T06:43:40.135Z,45.00
2018-09-08T06:44:40.145Z,45.00
2018-09-08T06:45:40.176Z,45.00
2018-09-08T06:46:40.154Z,45.00
2018-09-08T06:47:40.154Z,45.00
2018-09-08T06:48:40.153Z,45.00
2018-09-08T06:49:40.158Z,45.00
2018-09-08T06:50:40.185Z,45.00
2018-09-08T06:51:40.158Z,45.00
2018-09-08T06:52:40.165Z,45.00
2018-09-08T06:53:40.169Z,45.00
2018-09-08T06:54:40.178Z,45.00
2018-09-08T06:55:40.175Z,45.00
2018-09-08T06:56:40.176Z,50.63
2018-09-08T06:57:40.178Z,50.63
2018-09-08T06:58:40.207Z,50.63
2018-09-08T06:59:40.188Z,50.63
2018-09-08T07:00:40.201Z,50.63
2018-09-08T07:01:40.201Z,50.63
2018-09-08T07:02:40.205Z,50.63
2018-09-08T07:03:40.210Z,50.63
2018-09-08T07:04:40.257Z,50.63
2018-09-08T07:05:40.208Z,50.63
2018-09-08T07:06:40.258Z,50.63
2018-09-08T07:07:40.219Z,56.25
2018-09-08T07:08:40.233Z,50.63
2018-09-08T07:09:40.234Z,50.63
2018-09-08T07:10:40.242Z,56.25
2018-09-08T07:11:40.236Z,56.25
2018-09-08T07:12:40.240Z,56.25
2018-09-08T07:13:40.249Z,56.25
2018-09-08T07:14:40.253Z,56.25
2018-09-08T07:15:40.281Z,56.25
2018-09-08T07:16:40.263Z,56.25
2018-09-08T07:17:40.272Z,56.25
2018-09-08T07:18:40.295Z,56.25
2018-09-08T07:19:40.330Z,56.25
2018-09-08T07:20:40.296Z,56.25
2018-09-08T07:21:40.280Z,56.25
2018-09-08T07:22:40.280Z,56.25
2018-09-08T07:23:40.286Z,56.25
2018-09-08T07:24:40.294Z,56.25
2018-09-08T07:25:40.298Z,56.25
2018-09-08T07:26:40.301Z,56.25
2018-09-08T07:27:40.299Z,56.25
2018-09-08T07:28:40.305Z,56.25
2018-09-08T07:29:40.374Z,56.25
2018-09-08T07:30:40.320Z,56.25
2018-09-08T07:31:40.323Z,56.25
2018-09-08T07:32:40.331Z,56.25
2018-09-08T07:33:40.334Z,56.25
2018-09-08T07:34:40.354Z,56.25
2018-09-08T07:35:40.342Z,56.25
2018-09-08T07:36:40.364Z,56.25
2018-09-08T07:37:40.435Z,56.25
2018-09-08T07:38:40.356Z,61.88
2018-09-08T07:39:40.422Z,67.50
2018-09-08T07:40:40.359Z,61.88
2018-09-08T07:41:40.363Z,61.88
2018-09-08T07:42:40.370Z,61.88
2018-09-08T07:43:40.395Z,61.88
2018-09-08T07:44:40.385Z,61.88
2018-09-08T07:45:40.398Z,61.88
2018-09-08T07:46:40.444Z,61.88
2018-09-08T07:47:40.392Z,61.88
2018-09-08T07:48:40.404Z,61.88
2018-09-08T07:49:40.405Z,61.88
2018-09-08T07:50:40.407Z,61.88
2018-09-08T07:51:40.433Z,61.88
2018-09-08T07:52:40.478Z,61.88
2018-09-08T07:53:40.568Z,61.88
2018-09-08T07:54:40.448Z,67.50
2018-09-08T07:55:40.439Z,67.50
2018-09-08T07:56:40.525Z,67.50
2018-09-08T07:57:40.456Z,67.50
2018-09-08T07:58:40.446Z,67.50
2018-09-08T07:59:40.511Z,67.50
2018-09-08T08:00:40.462Z,67.50
2018-09-08T08:01:40.488Z,67.50
2018-09-08T08:02:40.468Z,67.50
2018-09-08T08:03:40.470Z,67.50
2018-09-08T08:04:40.481Z,67.50
2018-09-08T08:05:40.479Z,67.50
2018-09-08T08:06:40.499Z,67.50
2018-09-08T08:07:40.509Z,67.50
2018-09-08T08:08:40.527Z,67.50
2018-09-08T08:09:40.501Z,67.50
2018-09-08T08:10:40.511Z,73.13
2018-09-08T08:11:40.520Z,73.13
2018-09-08T08:12:40.528Z,73.13
2018-09-08T08:13:40.582Z,73.13
2018-09-08T08:14:40.594Z,73.13
2018-09-08T08:15:40.548Z,73.13
2018-09-08T08:16:40.542Z,73.13
2018-09-08T08:17:40.550Z,73.13
2018-09-08T08:18:40.619Z,73.13
2018-09-08T08:19:40.611Z,73.13
2018-09-08T08:20:40.565Z,73.13
2018-09-08T08:21:40.582Z,73.13
2018-09-08T08:22:40.566Z,73.13
2018-09-08T08:23:40.574Z,73.13
2018-09-08T08:24:40.649Z,73.13
2018-09-08T08:25:40.584Z,73.13
2018-09-08T08:26:40.589Z,73.13
2018-09-08T08:27:40.597Z,73.13
2018-09-08T08:28:40.605Z,73.13
2018-09-08T08:29:40.608Z,73.13
2018-09-08T08:30:40.609Z,73.13
2018-09-08T08:31:40.627Z,73.13
2018-09-08T08:32:40.623Z,73.13
2018-09-08T08:33:40.632Z,73.13
2018-09-08T08:34:40.635Z,73.13
2018-09-08T08:35:40.740Z,73.13
2018-09-08T08:36:40.641Z,73.13
2018-09-08T08:37:40.651Z,73.13
2018-09-08T08:38:40.654Z,73.13
2018-09-08T08:39:40.723Z,73.13
2018-09-08T08:40:40.712Z,73.13
2018-09-08T08:41:40.677Z,73.13
2018-09-08T08:42:40.763Z,73.13
2018-09-08T08:43:40.702Z,73.13
2018-09-08T08:44:40.702Z,73.13
2018-09-08T08:45:40.710Z,78.75
2018-09-08T08:46:40.707Z,78.75
2018-09-08T08:47:40.711Z,84.38
2018-09-08T08:48:40.726Z,84.38
2018-09-08T08:49:40.781Z,78.75
2018-09-08T08:50:40.750Z,78.75
2018-09-08T08:51:40.731Z,78.75
2018-09-08T08:52:40.734Z,78.75
2018-09-08T08:53:40.742Z,78.75
2018-09-08T08:54:40.750Z,78.75
2018-09-08T08:55:40.753Z,78.75
2018-09-08T08:56:40.843Z,78.75
2018-09-08T08:57:40.771Z,78.75
2018-09-08T08:58:40.774Z,78.75
2018-09-08T08:59:40.783Z,78.75
2018-09-08T09:00:40.815Z,78.75
2018-09-08T09:01:40.794Z,78.75
2018-09-08T09:02:40.793Z,78.75
2018-09-08T09:03:40.807Z,78.75
2018-09-08T09:04:40.808Z,78.75
2018-09-08T09:05:40.830Z,78.75
2018-09-08T09:06:40.818Z,78.75
2018-09-08T09:07:40.822Z,78.75
2018-09-08T09:08:41.269Z,84.38
2018-09-08T09:09:40.842Z,84.38
2018-09-08T09:10:40.846Z,84.38
2018-09-08T09:11:40.854Z,84.38
2018-09-08T09:12:40.873Z,84.38
2018-09-08T09:13:40.865Z,84.38
2018-09-08T09:14:41.203Z,84.38
2018-09-08T09:15:40.872Z,84.38
2018-09-08T09:16:40.919Z,84.38
2018-09-08T09:17:40.918Z,84.38
2018-09-08T09:18:41.400Z,84.38
2018-09-08T09:19:40.947Z,84.38
2018-09-08T09:20:40.929Z,84.38
2018-09-08T09:21:40.906Z,84.38
2018-09-08T09:22:40.930Z,84.38
2018-09-08T09:23:40.993Z,84.38
2018-09-08T09:24:41.342Z,84.38
2018-09-08T09:25:40.960Z,84.38
2018-09-08T09:26:40.954Z,84.38
2018-09-08T09:27:40.968Z,84.38
2018-09-08T09:28:41.036Z,84.38
2018-09-08T09:29:41.006Z,90.00
2018-09-08T09:30:40.961Z,90.00
2018-09-08T09:31:41.039Z,90.00
2018-09-08T09:32:41.036Z,90.00
2018-09-08T09:33:40.997Z,90.00
2018-09-08T09:34:41.008Z,90.00
2018-09-08T09:35:41.021Z,90.00
2018-09-08T09:36:41.004Z,90.00
2018-09-08T09:37:41.014Z,90.00
2018-09-08T09:38:41.068Z,90.00
2018-09-08T09:39:41.022Z,90.00
2018-09-08T09:40:41.031Z,90.00
2018-09-08T09:41:41.050Z,90.00
2018-09-08T09:42:41.039Z,90.00
2018-09-08T09:43:41.135Z,90.00
2018-09-08T09:44:41.074Z,90.00
2018-09-08T09:45:47.565Z,90.00
2018-09-08T09:46:41.070Z,90.00
2018-09-08T09:47:41.081Z,90.00
2018-09-08T09:48:41.098Z,90.00
2018-09-08T09:49:41.091Z,90.00
2018-09-08T09:50:41.095Z,90.00
2018-09-08T09:51:41.109Z,90.00
2018-09-08T09:52:41.104Z,90.00
2018-09-08T09:53:41.111Z,90.00
2018-09-08T09:54:41.126Z,90.00
2018-09-08T09:55:41.202Z,90.00
2018-09-08T09:56:41.167Z,90.00
2018-09-08T09:57:41.139Z,90.00
2018-09-08T09:58:41.145Z,90.00
2018-09-08T09:59:41.154Z,90.00
2018-09-08T10:00:41.156Z,90.00
2018-09-08T10:01:41.171Z,90.00
2018-09-08T10:02:41.221Z,90.00
2018-09-08T10:03:41.191Z,90.00
2018-09-08T10:04:41.185Z,90.00
2018-09-08T10:05:41.193Z,90.00
2018-09-08T10:06:41.256Z,90.00
2018-09-08T10:07:41.236Z,90.00
2018-09-08T10:08:41.217Z,90.00
2018-09-08T10:09:41.227Z,90.00
2018-09-08T10:10:41.235Z,90.00
2018-09-08T10:11:41.249Z,90.00
2018-09-08T10:12:41.255Z,90.00
2018-09-08T10:13:41.249Z,90.00
2018-09-08T10:14:41.267Z,90.00
2018-09-08T10:15:41.264Z,90.00
2018-09-08T10:16:41.268Z,90.00
2018-09-08T10:17:41.276Z,90.00
2018-09-08T10:18:41.284Z,90.00
2018-09-08T10:19:41.347Z,90.00
2018-09-08T10:20:41.309Z,90.00
2018-09-08T10:21:41.317Z,90.00
2018-09-08T10:22:41.390Z,90.00
2018-09-08T10:23:41.325Z,90.00
2018-09-08T10:24:41.334Z,90.00
2018-09-08T10:25:41.361Z,90.00
2018-09-08T10:26:41.350Z,90.00
2018-09-08T10:27:41.370Z,90.00
2018-09-08T10:28:41.364Z,90.00
2018-09-08T10:29:41.587Z,90.00
2018-09-08T10:30:41.375Z,95.63
2018-09-08T10:31:41.374Z,95.63
2018-09-08T10:32:41.385Z,95.63
2018-09-08T10:33:41.398Z,95.63
2018-09-08T10:34:41.504Z,95.63
2018-09-08T10:35:41.461Z,95.63
2018-09-08T10:36:41.418Z,95.63
2018-09-08T10:37:41.423Z,95.63
2018-09-08T11:38:24.404Z,106.88
2018-09-08T11:39:24.152Z,106.88
2018-09-08T11:40:24.184Z,106.88
2018-09-08T11:41:24.187Z,106.88
2018-09-08T11:42:24.155Z,106.88
2018-09-08T11:43:24.156Z,106.88
2018-09-08T11:44:24.161Z,106.88
2018-09-08T11:45:24.177Z,106.88
2018-09-08T11:46:24.182Z,106.88
2018-09-08T11:47:24.192Z,106.88
2018-09-08T11:48:24.222Z,106.88
2018-09-08T11:49:24.234Z,106.88
2018-09-08T11:50:24.213Z,106.88
2018-09-08T11:51:24.221Z,101.25
2018-09-08T11:52:24.225Z,106.88
2018-09-08T11:53:24.234Z,106.88
2018-09-08T11:54:24.241Z,106.88
2018-09-08T11:55:24.252Z,106.88
2018-09-08T11:56:24.264Z,106.88
2018-09-08T11:57:24.265Z,106.88
2018-09-08T11:58:24.274Z,106.88
2018-09-08T11:59:24.295Z,106.88
2018-09-08T12:00:24.289Z,106.88
2018-09-08T12:01:24.301Z,106.88
2018-09-08T12:02:24.307Z,106.88
2018-09-08T12:03:24.314Z,106.88
2018-09-08T12:04:24.328Z,106.88
2018-09-08T12:05:24.396Z,112.50
2018-09-08T12:06:24.423Z,112.50
2018-09-08T12:07:24.377Z,112.50
2018-09-08T12:08:24.382Z,112.50
2018-09-08T12:09:24.384Z,112.50
2018-09-08T12:10:24.392Z,112.50
2018-09-08T12:11:24.391Z,112.50
2018-09-08T12:12:24.444Z,112.50
2018-09-08T12:13:24.446Z,112.50
2018-09-08T12:14:24.464Z,112.50
2018-09-08T12:15:24.430Z,112.50
2018-09-08T12:16:24.427Z,112.50
2018-09-08T12:17:24.432Z,112.50
2018-09-08T12:18:24.487Z,106.88
2018-09-08T12:19:24.448Z,106.88
2018-09-08T12:20:24.459Z,101.25
2018-09-08T12:21:24.497Z,112.50
2018-09-08T12:22:24.523Z,112.50
2018-09-08T12:23:24.480Z,112.50
2018-09-08T12:24:24.545Z,112.50
2018-09-08T12:25:24.571Z,118.13
2018-09-08T12:26:24.505Z,118.13
2018-09-08T12:27:24.516Z,118.13
2018-09-08T12:28:24.537Z,118.13
2018-09-08T12:29:24.561Z,118.13
2018-09-08T12:30:24.574Z,118.13
2018-09-08T12:31:24.600Z,118.13
2018-09-08T12:32:24.593Z,118.13
2018-09-08T12:33:24.563Z,118.13
2018-09-08T12:34:24.575Z,118.13
2018-09-08T12:35:24.626Z,118.13
2018-09-08T12:36:24.600Z,118.13
2018-09-08T12:37:24.650Z,123.75
2018-09-08T12:38:24.612Z,118.13
2018-09-08T12:39:24.617Z,118.13
2018-09-08T12:40:24.627Z,118.13
2018-09-08T12:41:24.646Z,118.13
2018-09-08T12:42:24.642Z,118.13
2018-09-08T12:43:24.652Z,123.75
2018-09-08T12:44:24.707Z,123.75
2018-09-08T12:45:24.716Z,123.75
2018-09-08T12:46:24.684Z,123.75
2018-09-08T12:47:24.702Z,123.75
2018-09-08T12:48:24.709Z,123.75
2018-09-08T12:49:24.748Z,123.75
2018-09-08T12:50:24.728Z,123.75
2018-09-08T12:51:24.728Z,123.75
2018-09-08T12:52:24.763Z,129.38
2018-09-08T12:53:24.800Z,129.38
2018-09-08T12:54:24.815Z,129.38
2018-09-08T12:55:24.753Z,129.38
2018-09-08T12:56:24.785Z,129.38
2018-09-08T12:57:24.833Z,129.38
2018-09-08T12:58:24.780Z,129.38
2018-09-08T12:59:24.813Z,129.38
2018-09-08T13:00:24.799Z,129.38
2018-09-08T13:01:24.805Z,129.38
2018-09-08T13:02:24.817Z,129.38
2018-09-08T13:03:24.840Z,129.38
2018-09-08T13:04:24.839Z,129.38
2018-09-08T13:05:24.853Z,135.00
2018-09-08T13:06:24.859Z,135.00
2018-09-08T13:07:24.860Z,129.38
2018-09-08T13:08:24.875Z,118.13
2018-09-08T13:09:24.876Z,90.00
2018-09-08T13:10:24.889Z,84.38
2018-09-08T13:11:24.904Z,112.50
2018-09-08T13:12:24.905Z,95.63
2018-09-08T13:13:24.913Z,112.50
2018-09-08T13:14:24.927Z,135.00
2018-09-08T13:15:24.929Z,135.00
2018-09-08T13:16:24.941Z,123.75
2018-09-08T13:17:24.945Z,112.50
2018-09-08T13:18:24.955Z,135.00
2018-09-08T13:19:24.964Z,135.00
2018-09-08T13:20:24.976Z,157.50
2018-09-08T13:21:24.983Z,146.25
2018-09-08T13:22:25.003Z,135.00
2018-09-08T13:23:25.014Z,123.75
2018-09-08T13:24:25.034Z,140.63
2018-09-08T13:25:25.048Z,135.00
2018-09-08T13:26:25.044Z,151.88
2018-09-08T13:27:25.046Z,157.50
2018-09-08T13:28:25.054Z,163.13
2018-09-08T13:29:25.060Z,163.13
2018-09-08T13:30:25.066Z,157.50
2018-09-08T13:31:25.083Z,151.88
2018-09-08T13:32:25.086Z,163.13
2018-09-08T13:33:25.101Z,168.75
2018-09-08T13:34:25.105Z,168.75
2018-09-08T13:35:25.113Z,163.13
2018-09-08T13:36:25.133Z,163.13
2018-09-08T13:37:25.133Z,163.13
2018-09-08T13:38:25.147Z,163.13
2018-09-08T13:39:25.179Z,163.13
2018-09-08T13:40:25.173Z,157.50
2018-09-08T13:41:25.176Z,157.50
2018-09-08T13:42:25.177Z,146.25
2018-09-08T13:43:25.195Z,140.63
2018-09-08T13:44:25.226Z,146.25
2018-09-08T13:45:25.211Z,157.50
2018-09-08T13:46:25.245Z,151.88
2018-09-08T13:47:25.266Z,146.25
2018-09-08T13:48:25.239Z,146.25
2018-09-08T13:49:25.260Z,140.63
2018-09-08T13:50:25.257Z,146.25
2018-09-08T13:51:25.267Z,146.25
2018-09-08T13:52:25.281Z,140.63
2018-09-08T13:53:25.293Z,140.63
2018-09-08T13:54:25.336Z,140.63
2018-09-08T13:55:25.315Z,112.50
2018-09-08T13:56:25.313Z,106.88
2018-09-08T13:57:25.321Z,106.88
2018-09-08T13:58:25.328Z,73.13